createdAt,value
2023-01-17T00:00:10.083Z,82
2023-01-17T00:01:10.091Z,82
2023-01-17T00:02:10.007Z,82
2023-01-17T00:03:09.992Z,82
2023-01-17T00:04:10.215Z,82
2023-01-17T00:05:10.048Z,82
2023-01-17T00:06:10.039Z,81
2023-01-17T00:07:10.124Z,81
2023-01-17T00:08:10.059Z,81
2023-01-17T00:09:10.112Z,80
2023-01-17T00:10:10.027Z,80
2023-01-17T00:11:10.025Z,80
2023-01-17T00:12:10.059Z,80
2023-01-17T00:13:10.005Z,81
2023-01-17T00:14:10.028Z,81
2023-01-17T00:15:10.180Z,81
2023-01-17T00:16:10.095Z,81
2023-01-17T00:17:10.081Z,81
2023-01-17T00:18:10.040Z,81
2023-01-17T00:19:10.213Z,81
2023-01-17T00:20:10.123Z,81
2023-01-17T00:21:10.063Z,81
2023-01-17T00:22:10.148Z,81
2023-01-17T00:23:10.058Z,81
2023-01-17T00:24:10.084Z,81
2023-01-17T00:25:10.144Z,81
2023-01-17T00:26:10.151Z,81
2023-01-17T00:27:10.098Z,81
2023-01-17T00:28:10.081Z,81
2023-01-17T00:29:10.083Z,81
2023-01-17T00:30:10.081Z,81
2023-01-17T00:31:10.133Z,81
2023-01-17T00:32:10.083Z,81
2023-01-17T00:33:10.085Z,80
2023-01-17T00:34:10.092Z,80
2023-01-17T00:35:10.102Z,80
2023-01-17T00:36:10.152Z,81
2023-01-17T00:37:10.138Z,81
2023-01-17T00:38:10.102Z,81
2023-01-17T00:39:10.105Z,81
2023-01-17T00:40:10.078Z,81
2023-01-17T00:41:10.087Z,81
2023-01-17T00:42:10.132Z,81
2023-01-17T00:43:10.153Z,80
2023-01-17T00:44:10.163Z,80
2023-01-17T00:45:10.147Z,80
2023-01-17T00:46:10.122Z,82
2023-01-17T00:47:10.205Z,82
2023-01-17T00:48:10.148Z,82
2023-01-17T00:49:10.170Z,82
2023-01-17T00:50:10.197Z,81
2023-01-17T00:51:10.257Z,81
2023-01-17T00:52:10.247Z,81
2023-01-17T00:53:10.123Z,81
2023-01-17T00:54:10.193Z,81
2023-01-17T00:55:10.243Z,81
2023-01-17T00:56:10.239Z,80
2023-01-17T00:57:10.281Z,80
2023-01-17T00:58:10.179Z,80
2023-01-17T00:59:10.197Z,80
2023-01-17T01:00:10.179Z,81
2023-01-17T01:01:10.356Z,81
2023-01-17T01:02:10.351Z,81
2023-01-17T01:03:10.199Z,81
2023-01-17T01:04:10.180Z,81
2023-01-17T01:05:10.182Z,81
2023-01-17T01:06:10.190Z,80
2023-01-17T01:07:10.178Z,80
2023-01-17T01:08:10.229Z,80
2023-01-17T01:09:10.326Z,80
2023-01-17T01:10:10.188Z,81
2023-01-17T01:11:10.317Z,81
2023-01-17T01:12:10.223Z,81
2023-01-17T01:13:10.242Z,80
2023-01-17T01:14:10.202Z,80
2023-01-17T01:15:10.209Z,80
2023-01-17T01:16:10.252Z,80
2023-01-17T01:17:10.242Z,80
2023-01-17T01:18:10.317Z,80
2023-01-17T01:19:10.209Z,80
2023-01-17T01:20:10.215Z,80
2023-01-17T01:21:10.204Z,80
2023-01-17T01:22:10.231Z,80
2023-01-17T01:23:10.375Z,81
2023-01-17T01:24:10.256Z,81
2023-01-17T01:25:10.332Z,81
2023-01-17T01:26:10.267Z,81
2023-01-17T01:27:10.342Z,81
2023-01-17T01:28:10.273Z,81
2023-01-17T01:29:10.346Z,81
2023-01-17T01:30:10.296Z,81
2023-01-17T01:31:10.331Z,81
2023-01-17T01:32:10.299Z,81
2023-01-17T01:33:10.299Z,81
2023-01-17T01:34:10.272Z,81
2023-01-17T01:35:10.291Z,81
2023-01-17T01:36:10.298Z,81
2023-01-17T01:37:10.289Z,81
2023-01-17T01:38:10.312Z,81
2023-01-17T01:39:10.405Z,81
2023-01-17T01:40:10.331Z,82
2023-01-17T01:41:10.280Z,82
2023-01-17T01:42:10.306Z,82
2023-01-17T01:43:10.375Z,81
2023-01-17T01:44:10.361Z,81
2023-01-17T01:45:10.268Z,81
2023-01-17T01:46:10.294Z,81
2023-01-17T01:47:10.386Z,81
2023-01-17T01:48:10.316Z,81
2023-01-17T01:49:10.326Z,81
2023-01-17T01:50:10.318Z,82
2023-01-17T01:51:10.295Z,82
2023-01-17T01:52:10.318Z,82
2023-01-17T01:53:10.324Z,81
2023-01-17T01:54:10.294Z,81
2023-01-17T01:55:10.400Z,81
2023-01-17T01:56:10.353Z,81
2023-01-17T01:57:10.393Z,81
2023-01-17T01:58:10.317Z,81
2023-01-17T01:59:10.384Z,81
2023-01-17T02:00:10.343Z,81
2023-01-17T02:01:10.520Z,81
2023-01-17T02:02:10.361Z,81
2023-01-17T02:03:10.529Z,80
2023-01-17T02:04:10.478Z,80
2023-01-17T02:05:10.394Z,80
2023-01-17T02:06:10.359Z,81
2023-01-17T02:07:10.465Z,81
2023-01-17T02:08:10.339Z,81
2023-01-17T02:09:10.456Z,81
2023-01-17T02:10:10.442Z,81
2023-01-17T02:11:10.416Z,81
2023-01-17T02:12:10.403Z,81
2023-01-17T02:13:10.361Z,81
2023-01-17T02:14:10.621Z,81
2023-01-17T02:15:10.345Z,81
2023-01-17T02:16:10.372Z,81
2023-01-17T02:17:10.407Z,81
2023-01-17T02:18:10.356Z,81
2023-01-17T02:19:10.424Z,81
2023-01-17T02:20:10.353Z,81
2023-01-17T02:21:10.420Z,81
2023-01-17T02:22:10.376Z,81
2023-01-17T02:23:10.474Z,81
2023-01-17T02:24:10.409Z,81
2023-01-17T02:25:10.579Z,81
2023-01-17T02:26:10.389Z,81
2023-01-17T02:27:10.445Z,80
2023-01-17T02:28:10.422Z,80
2023-01-17T02:29:10.385Z,80
2023-01-17T02:30:10.404Z,80
2023-01-17T02:31:10.400Z,80
2023-01-17T02:32:10.448Z,80
2023-01-17T02:33:10.394Z,81
2023-01-17T02:34:10.418Z,81
2023-01-17T02:35:10.509Z,81
2023-01-17T02:36:10.582Z,81
2023-01-17T02:37:10.623Z,82
2023-01-17T02:38:10.463Z,82
2023-01-17T02:39:10.490Z,82
2023-01-17T02:40:10.478Z,82
2023-01-17T02:41:10.510Z,82
2023-01-17T02:42:10.472Z,82
2023-01-17T02:43:10.429Z,82
2023-01-17T02:44:10.469Z,82
2023-01-17T02:45:10.485Z,82
2023-01-17T02:46:10.537Z,82
2023-01-17T02:47:10.466Z,81
2023-01-17T02:48:10.445Z,81
2023-01-17T02:49:10.495Z,81
2023-01-17T02:50:10.486Z,82
2023-01-17T02:51:10.467Z,82
2023-01-17T02:52:10.493Z,82
2023-01-17T02:53:10.445Z,82
2023-01-17T02:54:10.460Z,82
2023-01-17T02:55:10.462Z,82
2023-01-17T02:56:10.450Z,82
2023-01-17T02:57:10.498Z,81
2023-01-17T02:58:10.445Z,81
2023-01-17T02:59:10.546Z,81
2023-01-17T03:00:10.522Z,81
2023-01-17T03:01:10.825Z,81
2023-01-17T03:02:10.641Z,81
2023-01-17T03:03:10.565Z,81
2023-01-17T03:04:10.559Z,81
2023-01-17T03:05:10.562Z,81
2023-01-17T03:06:10.521Z,81
2023-01-17T03:07:10.530Z,81
2023-01-17T03:08:10.543Z,81
2023-01-17T03:09:10.676Z,81
2023-01-17T03:10:10.596Z,81
2023-01-17T03:11:10.507Z,81
2023-01-17T03:12:10.543Z,81
2023-01-17T03:13:10.563Z,81
2023-01-17T03:14:10.555Z,81
2023-01-17T03:15:10.591Z,81
2023-01-17T03:16:12.625Z,81
2023-01-17T03:17:10.563Z,82
2023-01-17T03:18:10.551Z,82
2023-01-17T03:19:10.692Z,82
2023-01-17T03:20:10.560Z,81
2023-01-17T03:21:10.559Z,81
2023-01-17T03:22:10.596Z,81
2023-01-17T03:23:10.559Z,82
2023-01-17T03:24:10.545Z,82
2023-01-17T03:25:10.569Z,82
2023-01-17T03:26:10.552Z,82
2023-01-17T03:27:10.631Z,82
2023-01-17T03:28:10.638Z,82
2023-01-17T03:29:10.697Z,82
2023-01-17T03:30:10.595Z,82
2023-01-17T03:31:10.633Z,82
2023-01-17T03:32:10.634Z,82
2023-01-17T03:33:10.627Z,82
2023-01-17T03:34:10.601Z,82
2023-01-17T03:35:10.629Z,82
2023-01-17T03:36:10.565Z,82
2023-01-17T03:37:10.634Z,82
2023-01-17T03:38:10.583Z,82
2023-01-17T03:39:10.574Z,82
2023-01-17T03:40:10.616Z,83
2023-01-17T03:41:10.570Z,83
2023-01-17T03:42:10.617Z,83
2023-01-17T03:43:10.622Z,83
2023-01-17T03:44:10.723Z,83
2023-01-17T03:45:10.669Z,83
2023-01-17T03:46:10.723Z,83
2023-01-17T03:47:10.632Z,82
2023-01-17T03:48:10.669Z,82
2023-01-17T03:49:10.638Z,82
2023-01-17T03:50:10.623Z,83
2023-01-17T03:51:10.647Z,83
2023-01-17T03:52:10.641Z,83
2023-01-17T03:53:10.645Z,84
2023-01-17T03:54:10.665Z,84
2023-01-17T03:55:10.638Z,84
2023-01-17T03:56:10.631Z,84
2023-01-17T03:57:10.658Z,83
2023-01-17T03:58:10.650Z,83
2023-01-17T03:59:13.020Z,83
2023-01-17T04:00:10.644Z,84
2023-01-17T04:01:10.731Z,84
2023-01-17T04:02:10.824Z,84
2023-01-17T04:03:10.641Z,84
2023-01-17T04:04:10.696Z,84
2023-01-17T04:05:10.644Z,84
2023-01-17T04:06:10.649Z,84
2023-01-17T04:07:10.677Z,84
2023-01-17T04:08:10.646Z,84
2023-01-17T04:09:10.723Z,84
2023-01-17T04:10:10.734Z,84
2023-01-17T04:11:10.780Z,84
2023-01-17T04:12:10.737Z,84
2023-01-17T04:13:10.784Z,85
2023-01-17T04:14:10.730Z,85
2023-01-17T04:15:10.812Z,85
2023-01-17T04:16:10.721Z,85
2023-01-17T04:17:10.719Z,86
2023-01-17T04:18:10.706Z,86
2023-01-17T04:19:10.776Z,86
2023-01-17T04:20:10.730Z,87
2023-01-17T04:21:10.718Z,87
2023-01-17T04:22:10.720Z,87
2023-01-17T04:23:10.714Z,88
2023-01-17T04:24:10.709Z,88
2023-01-17T04:25:10.717Z,88
2023-01-17T04:26:10.719Z,88
2023-01-17T04:27:10.720Z,90
2023-01-17T04:28:10.711Z,90
2023-01-17T04:29:11.033Z,90
2023-01-17T04:30:10.761Z,91
2023-01-17T04:31:10.795Z,91
2023-01-17T04:32:10.791Z,91
2023-01-17T04:33:10.723Z,92
2023-01-17T04:34:10.767Z,92
2023-01-17T04:35:10.733Z,92
2023-01-17T04:36:10.718Z,92
2023-01-17T04:37:10.733Z,92
2023-01-17T04:38:10.723Z,92
2023-01-17T04:39:10.776Z,92
2023-01-17T04:40:10.742Z,92
2023-01-17T04:41:10.797Z,92
2023-01-17T04:42:10.735Z,92
2023-01-17T04:43:10.877Z,92
2023-01-17T04:44:10.767Z,90
2023-01-17T04:45:10.891Z,90
2023-01-17T04:46:10.819Z,90
2023-01-17T04:47:10.771Z,90
2023-01-17T04:48:10.770Z,90
2023-01-17T04:49:10.790Z,90
2023-01-17T04:50:10.775Z,91
2023-01-17T04:51:10.823Z,91
2023-01-17T04:52:10.862Z,91
2023-01-17T04:53:10.910Z,91
2023-01-17T04:54:10.804Z,90
2023-01-17T04:55:10.876Z,90
2023-01-17T04:56:10.833Z,90
2023-01-17T04:57:10.876Z,89
2023-01-17T04:58:10.839Z,89
2023-01-17T04:59:10.976Z,89
2023-01-17T05:00:10.863Z,89
2023-01-17T05:01:11.014Z,89
2023-01-17T05:02:10.915Z,89
2023-01-17T05:03:10.907Z,89
2023-01-17T05:04:10.846Z,89
2023-01-17T05:05:11.053Z,89
2023-01-17T05:06:10.866Z,89
2023-01-17T05:07:10.906Z,90
2023-01-17T05:08:10.921Z,90
2023-01-17T05:09:10.943Z,90
2023-01-17T05:10:10.860Z,89
2023-01-17T05:11:10.876Z,89
2023-01-17T05:12:10.906Z,89
2023-01-17T05:13:10.878Z,89
2023-01-17T05:14:10.899Z,88
2023-01-17T05:15:10.878Z,88
2023-01-17T05:16:10.956Z,88
2023-01-17T05:17:10.940Z,90
2023-01-17T05:18:10.873Z,90
2023-01-17T05:19:10.869Z,90
2023-01-17T05:20:10.879Z,88
2023-01-17T05:21:10.872Z,88
2023-01-17T05:22:10.879Z,88
2023-01-17T05:23:10.870Z,88
2023-01-17T05:24:10.881Z,89
2023-01-17T05:25:10.880Z,89
2023-01-17T05:26:10.878Z,89
2023-01-17T05:27:10.927Z,88
2023-01-17T05:28:10.866Z,88
2023-01-17T05:29:10.924Z,88
2023-01-17T05:30:10.871Z,88
2023-01-17T05:31:10.980Z,88
2023-01-17T05:32:10.945Z,88
2023-01-17T05:33:10.875Z,88
2023-01-17T05:34:10.875Z,89
2023-01-17T05:35:11.053Z,89
2023-01-17T05:36:10.918Z,89
2023-01-17T05:37:10.959Z,90
2023-01-17T05:38:10.894Z,90
2023-01-17T05:39:11.058Z,90
2023-01-17T05:40:10.931Z,90
2023-01-17T05:41:10.958Z,90
2023-01-17T05:42:10.956Z,90
2023-01-17T05:43:10.950Z,90
2023-01-17T05:44:10.917Z,90
2023-01-17T05:45:10.923Z,90
2023-01-17T05:46:10.984Z,90
2023-01-17T05:47:10.956Z,91
2023-01-17T05:48:10.955Z,91
2023-01-17T05:49:10.925Z,91
2023-01-17T05:50:10.910Z,90
2023-01-17T05:51:10.924Z,90
2023-01-17T05:52:10.975Z,90
2023-01-17T05:53:10.920Z,90
2023-01-17T05:54:10.922Z,90
2023-01-17T05:55:10.923Z,90
2023-01-17T05:56:10.958Z,90
2023-01-17T05:57:10.983Z,90
2023-01-17T05:58:10.978Z,90
2023-01-17T05:59:13.239Z,90
2023-01-17T06:00:10.913Z,90
2023-01-17T06:01:10.999Z,90
2023-01-17T06:02:10.973Z,90
2023-01-17T06:03:10.955Z,90
2023-01-17T06:04:10.964Z,90
2023-01-17T06:05:10.936Z,90
2023-01-17T06:06:10.923Z,90
2023-01-17T06:07:10.962Z,91
2023-01-17T06:08:10.983Z,91
2023-01-17T06:09:11.033Z,91
2023-01-17T06:10:10.969Z,91
2023-01-17T06:11:10.969Z,91
2023-01-17T06:12:11.036Z,91
2023-01-17T06:13:11.048Z,91
2023-01-17T06:14:11.058Z,91
2023-01-17T06:15:11.080Z,91
2023-01-17T06:16:11.084Z,91
2023-01-17T06:17:10.988Z,91
2023-01-17T06:18:11.037Z,91
2023-01-17T06:19:10.977Z,91
2023-01-17T06:20:10.986Z,91
2023-01-17T06:21:10.996Z,92
2023-01-17T06:22:11.036Z,92
2023-01-17T06:23:11.072Z,92
2023-01-17T06:24:11.038Z,92
2023-01-17T06:25:11.039Z,92
2023-01-17T06:26:11.052Z,92
2023-01-17T06:27:11.133Z,92
2023-01-17T06:28:11.079Z,92
2023-01-17T06:29:11.283Z,92
2023-01-17T06:30:11.050Z,92
2023-01-17T06:31:11.090Z,92
2023-01-17T06:32:11.074Z,92
2023-01-17T06:33:11.176Z,92
2023-01-17T06:34:11.080Z,92
2023-01-17T06:35:11.079Z,92
2023-01-17T06:36:11.073Z,92
2023-01-17T06:37:11.185Z,92
2023-01-17T06:38:11.086Z,93
2023-01-17T06:39:11.843Z,93
2023-01-17T06:40:11.042Z,93
2023-01-17T06:41:11.037Z,93
2023-01-17T06:42:11.071Z,93
2023-01-17T06:43:11.039Z,93
2023-01-17T06:44:11.069Z,93
2023-01-17T06:45:11.089Z,93
2023-01-17T06:46:11.154Z,93
2023-01-17T06:47:11.053Z,93
2023-01-17T06:48:11.054Z,93
2023-01-17T06:49:11.049Z,93
2023-01-17T06:50:11.047Z,93
2023-01-17T06:51:11.162Z,93
2023-01-17T06:52:11.097Z,93
2023-01-17T06:53:11.077Z,93
2023-01-17T06:54:11.123Z,93
2023-01-17T06:55:11.104Z,93
2023-01-17T06:56:11.169Z,93
2023-01-17T06:57:11.135Z,93
2023-01-17T06:58:11.082Z,93
2023-01-17T06:59:11.095Z,93
2023-01-17T07:00:11.134Z,93
2023-01-17T07:01:11.166Z,93
2023-01-17T07:02:11.126Z,93
2023-01-17T07:03:11.092Z,93
2023-01-17T07:04:11.116Z,93
2023-01-17T07:05:11.212Z,93
2023-01-17T07:06:11.099Z,93
2023-01-17T07:07:11.131Z,93
2023-01-17T07:08:11.104Z,94
2023-01-17T07:09:11.119Z,94
2023-01-17T07:10:11.150Z,94
2023-01-17T07:11:11.156Z,93
2023-01-17T07:12:11.176Z,93
2023-01-17T07:13:11.086Z,93
2023-01-17T07:14:11.154Z,93
2023-01-17T07:15:11.153Z,93
2023-01-17T07:16:11.149Z,93
2023-01-17T07:17:11.197Z,93
2023-01-17T07:18:11.129Z,93
2023-01-17T07:19:11.249Z,93
2023-01-17T07:20:11.174Z,93
2023-01-17T07:21:11.154Z,93
2023-01-17T07:22:11.156Z,93
2023-01-17T07:23:11.269Z,93
2023-01-17T07:24:11.200Z,93
2023-01-17T07:25:11.178Z,93
2023-01-17T07:26:11.144Z,93
2023-01-17T07:27:11.189Z,93
2023-01-17T07:28:11.242Z,93
2023-01-17T07:29:11.172Z,93
2023-01-17T07:30:11.177Z,93
2023-01-17T07:31:11.397Z,94
2023-01-17T07:32:11.222Z,94
2023-01-17T07:33:11.192Z,94
2023-01-17T07:34:11.205Z,94
2023-01-17T07:35:11.232Z,94
2023-01-17T07:36:11.196Z,94
2023-01-17T07:37:12.109Z,94
2023-01-17T07:38:11.308Z,94
2023-01-17T07:39:11.196Z,94
2023-01-17T07:40:11.267Z,94
2023-01-17T07:41:11.441Z,94
2023-01-17T07:42:11.260Z,94
2023-01-17T07:43:11.226Z,94
2023-01-17T07:44:11.263Z,94
2023-01-17T07:45:11.476Z,93
2023-01-17T07:46:11.240Z,93
2023-01-17T07:47:11.283Z,93
2023-01-17T07:48:11.350Z,93
2023-01-17T07:49:11.254Z,93
2023-01-17T07:50:11.259Z,93
2023-01-17T07:51:11.349Z,93
2023-01-17T07:52:11.357Z,93
2023-01-17T07:53:11.361Z,93
2023-01-17T07:54:11.285Z,93
2023-01-17T07:55:11.428Z,93
2023-01-17T07:56:11.283Z,93
2023-01-17T07:57:11.307Z,93
2023-01-17T07:58:11.269Z,93
2023-01-17T07:59:11.267Z,93
2023-01-17T08:00:11.261Z,93
2023-01-17T08:01:11.337Z,93
2023-01-17T08:02:11.311Z,93
2023-01-17T08:03:11.318Z,93
2023-01-17T08:04:11.344Z,93
2023-01-17T08:05:11.257Z,91
2023-01-17T08:06:11.273Z,91
2023-01-17T08:07:11.336Z,91
2023-01-17T08:08:11.284Z,91
2023-01-17T08:09:11.277Z,91
2023-01-17T08:10:11.350Z,91
2023-01-17T08:11:11.272Z,91
2023-01-17T08:12:11.312Z,91
2023-01-17T08:13:11.279Z,91
2023-01-17T08:14:11.273Z,91
2023-01-17T08:15:11.286Z,89
2023-01-17T08:16:11.302Z,89
2023-01-17T08:17:11.432Z,89
2023-01-17T08:18:11.290Z,90
2023-01-17T08:19:11.331Z,90
2023-01-17T08:20:11.327Z,90
2023-01-17T08:21:11.331Z,91
2023-01-17T08:22:11.323Z,91
2023-01-17T08:23:11.338Z,91
2023-01-17T08:24:11.414Z,91
2023-01-17T08:25:11.422Z,92
2023-01-17T08:26:11.346Z,92
2023-01-17T08:27:11.369Z,92
2023-01-17T08:28:11.327Z,89
2023-01-17T08:29:11.361Z,89
2023-01-17T08:30:11.321Z,89
2023-01-17T08:31:11.385Z,89
2023-01-17T08:32:11.423Z,87
2023-01-17T08:33:11.363Z,87
2023-01-17T08:34:11.375Z,87
2023-01-17T08:35:11.326Z,88
2023-01-17T08:36:11.403Z,88
2023-01-17T08:37:11.373Z,88
2023-01-17T08:38:11.454Z,88
2023-01-17T08:39:11.425Z,89
2023-01-17T08:40:11.425Z,89
2023-01-17T08:41:11.404Z,89
2023-01-17T08:42:11.630Z,91
2023-01-17T08:43:11.491Z,91
2023-01-17T08:44:11.420Z,91
2023-01-17T08:45:11.485Z,87
2023-01-17T08:46:11.488Z,87
2023-01-17T08:47:11.422Z,87
2023-01-17T08:48:11.518Z,86
2023-01-17T08:49:11.424Z,86
2023-01-17T08:50:11.401Z,86
2023-01-17T08:51:11.434Z,86
2023-01-17T08:52:11.670Z,86
2023-01-17T08:53:11.481Z,86
2023-01-17T08:54:11.438Z,86
2023-01-17T08:55:11.438Z,85
2023-01-17T08:56:11.384Z,85
2023-01-17T08:57:11.434Z,85
2023-01-17T08:58:11.399Z,85
2023-01-17T08:59:11.538Z,83
2023-01-17T09:00:11.449Z,83
2023-01-17T09:01:11.584Z,83
2023-01-17T09:02:11.435Z,82
2023-01-17T09:03:11.549Z,82
2023-01-17T09:04:11.515Z,82
2023-01-17T09:05:11.594Z,82
2023-01-17T09:06:11.439Z,82
2023-01-17T09:07:11.470Z,82
2023-01-17T09:08:11.491Z,82
2023-01-17T09:09:11.567Z,83
2023-01-17T09:10:11.517Z,83
2023-01-17T09:11:11.481Z,83
2023-01-17T09:12:11.559Z,86
2023-01-17T09:13:11.579Z,86
2023-01-17T09:14:11.463Z,86
2023-01-17T09:15:11.581Z,88
2023-01-17T09:16:11.541Z,89
2023-01-17T09:17:13.116Z,89
2023-01-17T09:18:11.469Z,89
2023-01-17T09:19:11.481Z,88
2023-01-17T09:20:11.515Z,88
2023-01-17T09:21:11.486Z,88
2023-01-17T09:22:11.525Z,88
2023-01-17T09:23:11.476Z,88
2023-01-17T09:24:11.524Z,88
2023-01-17T09:25:11.772Z,88
2023-01-17T09:26:11.594Z,89
2023-01-17T09:27:11.610Z,89
2023-01-17T09:28:11.554Z,89
2023-01-17T09:29:11.558Z,90
2023-01-17T09:30:11.553Z,90
2023-01-17T09:31:11.606Z,90
2023-01-17T09:32:11.555Z,88
2023-01-17T09:33:11.660Z,88
2023-01-17T09:34:11.543Z,88
2023-01-17T09:35:11.524Z,88
2023-01-17T09:36:11.531Z,89
2023-01-17T09:37:11.563Z,89
2023-01-17T09:38:11.537Z,89
2023-01-17T09:39:11.572Z,88
2023-01-17T09:40:11.606Z,88
2023-01-17T09:41:11.533Z,88
2023-01-17T09:42:11.570Z,90
2023-01-17T09:43:11.680Z,90
2023-01-17T09:44:11.558Z,90
2023-01-17T09:45:11.556Z,90
2023-01-17T09:46:11.606Z,87
2023-01-17T09:47:11.637Z,87
2023-01-17T09:48:11.589Z,87
2023-01-17T09:49:11.551Z,87
2023-01-17T09:50:11.562Z,87
2023-01-17T09:51:11.732Z,87
2023-01-17T09:52:11.617Z,88
2023-01-17T09:53:11.613Z,88
2023-01-17T09:54:11.615Z,88
2023-01-17T09:55:11.611Z,88
2023-01-17T09:56:11.634Z,87
2023-01-17T09:57:11.721Z,87
2023-01-17T09:58:11.655Z,87
2023-01-17T09:59:11.678Z,85
2023-01-17T10:00:11.684Z,85
2023-01-17T10:01:11.823Z,85
2023-01-17T10:02:11.927Z,85
2023-01-17T10:03:11.796Z,87
2023-01-17T10:04:11.672Z,87
2023-01-17T10:05:11.677Z,87
2023-01-17T10:06:11.599Z,86
2023-01-17T10:07:11.644Z,86
2023-01-17T10:08:11.622Z,86
2023-01-17T10:09:11.654Z,84
2023-01-17T10:10:11.631Z,84
2023-01-17T10:11:11.683Z,84
2023-01-17T10:12:11.795Z,84
2023-01-17T10:13:11.739Z,85
2023-01-17T10:14:11.634Z,85
2023-01-17T10:15:11.642Z,85
2023-01-17T10:16:11.649Z,86
2023-01-17T10:17:11.687Z,86
2023-01-17T10:18:19.123Z,86
2023-01-17T10:19:11.650Z,84
2023-01-17T10:20:11.638Z,84
2023-01-17T10:21:11.760Z,84
2023-01-17T10:22:11.707Z,84
2023-01-17T10:23:11.752Z,84
2023-01-17T10:24:11.679Z,84
2023-01-17T10:25:11.700Z,84
2023-01-17T10:26:11.708Z,83
2023-01-17T10:27:11.809Z,83
2023-01-17T10:28:11.712Z,83
2023-01-17T10:29:11.670Z,83
2023-01-17T10:30:11.690Z,81
2023-01-17T10:31:11.768Z,81
2023-01-17T10:32:11.715Z,81
2023-01-17T10:33:11.720Z,82
2023-01-17T10:34:11.689Z,82
2023-01-17T10:35:12.603Z,82
2023-01-17T10:36:11.696Z,82
2023-01-17T10:37:11.716Z,80
2023-01-17T10:38:11.685Z,80
2023-01-17T10:39:11.706Z,80
2023-01-17T10:40:11.662Z,79
2023-01-17T10:41:11.721Z,79
2023-01-17T10:42:11.734Z,79
2023-01-17T10:43:11.706Z,79
2023-01-17T10:44:11.703Z,79
2023-01-17T10:45:11.690Z,79
2023-01-17T10:46:11.700Z,79
2023-01-17T10:47:11.813Z,77
2023-01-17T10:48:11.744Z,77
2023-01-17T10:49:11.749Z,77
2023-01-17T10:50:11.705Z,74
2023-01-17T10:51:11.787Z,74
2023-01-17T10:52:11.762Z,74
2023-01-17T10:53:11.715Z,75
2023-01-17T10:54:11.706Z,75
2023-01-17T10:55:11.739Z,75
2023-01-17T10:56:11.731Z,75
2023-01-17T10:57:11.863Z,73
2023-01-17T10:58:11.740Z,73
2023-01-17T10:59:11.800Z,73
2023-01-17T11:00:11.854Z,75
2023-01-17T11:01:11.824Z,75
2023-01-17T11:02:11.863Z,75
2023-01-17T11:03:11.748Z,73
2023-01-17T11:04:11.738Z,73
2023-01-17T11:05:11.751Z,73
2023-01-17T11:06:11.756Z,73
2023-01-17T11:07:11.880Z,72
2023-01-17T11:08:11.756Z,72
2023-01-17T11:09:11.894Z,72
2023-01-17T11:10:11.794Z,72
2023-01-17T11:11:11.835Z,72
2023-01-17T11:12:11.810Z,72
2023-01-17T11:13:11.820Z,73
2023-01-17T11:14:11.783Z,73
2023-01-17T11:15:11.824Z,73
2023-01-17T11:16:11.897Z,73
2023-01-17T11:17:11.854Z,69
2023-01-17T11:18:11.792Z,69
2023-01-17T11:19:11.940Z,69
2023-01-17T11:20:11.800Z,72
2023-01-17T11:21:11.843Z,72
2023-01-17T11:22:11.848Z,72
2023-01-17T11:23:11.820Z,71
2023-01-17T11:24:11.811Z,71
2023-01-17T11:25:11.970Z,71
2023-01-17T11:26:11.826Z,71
2023-01-17T11:27:11.820Z,72
2023-01-17T11:28:11.808Z,72
2023-01-17T11:29:11.810Z,72
2023-01-17T11:30:11.833Z,77
2023-01-17T11:31:11.865Z,77
2023-01-17T11:32:11.861Z,77
2023-01-17T11:33:11.820Z,77
2023-01-17T11:34:11.850Z,75
2023-01-17T11:35:11.841Z,75
2023-01-17T11:36:11.823Z,75
2023-01-17T11:37:11.885Z,73
2023-01-17T11:38:11.825Z,73
2023-01-17T11:39:11.868Z,73
2023-01-17T11:40:11.829Z,76
2023-01-17T11:41:11.880Z,76
2023-01-17T11:42:11.878Z,76
2023-01-17T11:43:11.923Z,76
2023-01-17T11:44:11.889Z,76
2023-01-17T11:45:11.948Z,76
2023-01-17T11:46:11.903Z,76
2023-01-17T11:47:11.946Z,72
2023-01-17T11:48:11.900Z,72
2023-01-17T11:49:11.904Z,72
2023-01-17T11:50:11.892Z,72
2023-01-17T11:51:11.921Z,71
2023-01-17T11:52:11.925Z,71
2023-01-17T11:53:12.020Z,71
2023-01-17T11:54:11.924Z,73
2023-01-17T11:55:11.915Z,73
2023-01-17T11:56:11.866Z,73
2023-01-17T11:57:11.967Z,71
2023-01-17T11:58:11.860Z,71
2023-01-17T11:59:12.145Z,71
2023-01-17T12:00:11.905Z,71
2023-01-17T12:01:11.967Z,72
2023-01-17T12:02:11.910Z,72
2023-01-17T12:03:11.933Z,72
2023-01-17T12:04:11.938Z,68
2023-01-17T12:05:11.934Z,68
2023-01-17T12:06:11.937Z,68
2023-01-17T12:07:12.005Z,69
2023-01-17T12:08:11.916Z,69
2023-01-17T12:09:11.979Z,69
2023-01-17T12:10:11.955Z,69
2023-01-17T12:11:11.994Z,66
2023-01-17T12:12:11.956Z,66
2023-01-17T12:13:12.004Z,66
2023-01-17T12:14:12.008Z,64
2023-01-17T12:15:11.970Z,64
2023-01-17T12:16:11.996Z,64
2023-01-17T12:17:12.020Z,64
2023-01-17T12:18:11.964Z,65
2023-01-17T12:19:11.991Z,65
2023-01-17T12:20:11.983Z,65
2023-01-17T12:21:11.992Z,63
2023-01-17T12:22:11.979Z,63
2023-01-17T12:23:11.985Z,63
2023-01-17T12:24:11.937Z,63
2023-01-17T12:25:11.976Z,63
2023-01-17T12:26:11.965Z,63
2023-01-17T12:27:12.053Z,63
2023-01-17T12:28:11.960Z,65
2023-01-17T12:29:12.044Z,65
2023-01-17T12:30:11.993Z,65
2023-01-17T12:31:12.058Z,64
2023-01-17T12:32:12.023Z,64
2023-01-17T12:33:12.122Z,64
2023-01-17T12:34:12.041Z,64
2023-01-17T12:35:11.981Z,61
2023-01-17T12:36:12.005Z,61
2023-01-17T12:37:12.044Z,61
2023-01-17T12:38:20.792Z,60
2023-01-17T12:39:12.056Z,60
2023-01-17T12:40:11.995Z,60
2023-01-17T12:41:12.269Z,61
2023-01-17T12:42:12.053Z,61
2023-01-17T12:43:12.209Z,61
2023-01-17T12:44:11.997Z,61
2023-01-17T12:45:12.086Z,61
2023-01-17T12:46:12.078Z,61
2023-01-17T12:47:12.052Z,61
2023-01-17T12:48:11.998Z,62
2023-01-17T12:49:12.183Z,62
2023-01-17T12:50:12.027Z,62
2023-01-17T12:51:12.024Z,62
2023-01-17T12:52:12.111Z,60
2023-01-17T12:53:12.025Z,60
2023-01-17T12:54:12.022Z,60
2023-01-17T12:55:12.031Z,54
2023-01-17T12:56:11.999Z,54
2023-01-17T12:57:13.866Z,54
2023-01-17T12:58:12.029Z,54
2023-01-17T12:59:12.028Z,56
2023-01-17T13:00:12.030Z,56
2023-01-17T13:01:12.201Z,56
2023-01-17T13:02:12.100Z,57
2023-01-17T13:03:12.152Z,57
2023-01-17T13:04:12.091Z,57
2023-01-17T13:05:12.188Z,60
2023-01-17T13:06:12.096Z,60
2023-01-17T13:07:12.191Z,60
2023-01-17T13:08:12.121Z,60
2023-01-17T13:09:12.127Z,58
2023-01-17T13:10:12.133Z,58
2023-01-17T13:11:12.110Z,58
2023-01-17T13:12:12.122Z,57
2023-01-17T13:13:12.238Z,57
2023-01-17T13:14:12.081Z,57
2023-01-17T13:15:12.143Z,58
2023-01-17T13:16:12.164Z,58
2023-01-17T13:17:12.163Z,58
2023-01-17T13:18:12.145Z,58
2023-01-17T13:19:12.139Z,58
2023-01-17T13:20:12.141Z,58
2023-01-17T13:21:12.115Z,58
2023-01-17T13:22:12.159Z,59
2023-01-17T13:23:12.308Z,59
2023-01-17T13:24:12.206Z,59
2023-01-17T13:25:12.137Z,59
2023-01-17T13:26:12.123Z,59
2023-01-17T13:27:12.210Z,59
2023-01-17T13:28:12.182Z,59
2023-01-17T13:29:12.110Z,57
2023-01-17T13:30:12.096Z,57
2023-01-17T13:31:12.192Z,57
2023-01-17T13:32:12.139Z,57
2023-01-17T13:33:12.228Z,57
2023-01-17T13:34:12.154Z,57
2023-01-17T13:35:12.215Z,57
2023-01-17T13:36:12.155Z,57
2023-01-17T13:37:12.222Z,57
2023-01-17T13:38:12.211Z,57
2023-01-17T13:39:12.213Z,59
2023-01-17T13:40:12.207Z,59
2023-01-17T13:41:12.303Z,59
2023-01-17T13:42:12.180Z,59
2023-01-17T13:43:12.149Z,56
2023-01-17T13:44:12.165Z,56
2023-01-17T13:45:12.156Z,56
2023-01-17T13:46:12.161Z,57
2023-01-17T13:47:12.332Z,57
2023-01-17T13:48:12.171Z,57
2023-01-17T13:49:12.228Z,57
2023-01-17T13:50:12.186Z,57
2023-01-17T13:51:12.479Z,57
2023-01-17T13:52:12.187Z,57
2023-01-17T13:53:12.222Z,56
2023-01-17T13:54:12.192Z,56
2023-01-17T13:55:12.305Z,56
2023-01-17T13:56:12.251Z,57
2023-01-17T13:57:12.255Z,57
2023-01-17T13:58:12.188Z,57
2023-01-17T13:59:12.289Z,57
2023-01-17T14:00:12.203Z,57
2023-01-17T14:01:12.346Z,57
2023-01-17T14:02:12.285Z,57
2023-01-17T14:03:12.467Z,58
2023-01-17T14:04:12.287Z,58
2023-01-17T14:05:12.327Z,58
2023-01-17T14:06:12.401Z,58
2023-01-17T14:07:12.416Z,58
2023-01-17T14:08:12.219Z,58
2023-01-17T14:09:12.303Z,58
2023-01-17T14:10:12.476Z,57
2023-01-17T14:11:12.276Z,57
2023-01-17T14:12:12.271Z,57
2023-01-17T14:13:12.244Z,57
2023-01-17T14:14:12.230Z,61
2023-01-17T14:15:12.300Z,61